createdAt,value
2023-12-12T00:02:16.746Z,100669.59
2023-12-12T00:04:43.987Z,100670.59
2023-12-12T00:07:11.104Z,100677.91
2023-12-12T00:09:38.140Z,100676.47
2023-12-12T00:12:05.552Z,100679.44
2023-12-12T00:14:33.741Z,100678.63
2023-12-12T00:17:00.634Z,100679.81
2023-12-12T00:19:27.520Z,100686.13
2023-12-12T00:21:54.401Z,100688.94
2023-12-12T00:24:21.374Z,100683.00
2023-12-12T00:26:49.099Z,100689.28
2023-12-12T00:29:15.991Z,100691.31
2023-12-12T00:31:44.227Z,100684.38
2023-12-12T00:34:11.409Z,100683.38
2023-12-12T00:36:38.356Z,100679.88
2023-12-12T00:39:05.254Z,100688.84
2023-12-12T00:41:33.744Z,100696.13
2023-12-12T00:44:00.564Z,100695.31
2023-12-12T00:46:27.809Z,100694.50
2023-12-12T00:48:56.433Z,100693.66
2023-12-12T00:51:23.344Z,100696.31
2023-12-12T00:53:51.224Z,100694.50
2023-12-12T00:56:18.152Z,100691.22
2023-12-12T00:58:45.135Z,100689.56
2023-12-12T01:01:12.194Z,100700.34
2023-12-12T01:03:39.792Z,100695.38
2023-12-12T01:06:08.595Z,100694.75
2023-12-12T01:08:35.662Z,100687.78
2023-12-12T01:11:02.588Z,100698.56
2023-12-12T01:13:29.670Z,100686.31
2023-12-12T01:15:56.682Z,100692.81
2023-12-12T01:18:23.719Z,100695.63
2023-12-12T01:20:50.615Z,100688.84
2023-12-12T01:23:18.844Z,100698.63
2023-12-12T01:25:45.692Z,100681.06
2023-12-12T01:28:12.980Z,100684.75
2023-12-12T01:30:40.244Z,100679.78
2023-12-12T01:33:07.253Z,100678.13
2023-12-12T01:35:34.282Z,100692.38
2023-12-12T01:38:01.315Z,100693.91
2023-12-12T01:40:29.693Z,100689.59
2023-12-12T01:43:05.104Z,100682.19
2023-12-12T01:45:31.968Z,100681.53
2023-12-12T01:47:59.184Z,100684.56
2023-12-12T01:50:26.393Z,100683.06
2023-12-12T01:52:53.507Z,100683.41
2023-12-12T01:55:20.770Z,100680.28
2023-12-12T01:57:49.237Z,100668.22
2023-12-12T02:00:16.441Z,100678.16
2023-12-12T02:02:43.347Z,100672.38
2023-12-12T02:05:10.645Z,100666.78
2023-12-12T02:07:38.864Z,100662.00
2023-12-12T02:10:06.375Z,100654.38
2023-12-12T02:12:33.865Z,100660.03
2023-12-12T02:15:02.244Z,100654.59
2023-12-12T02:17:29.528Z,100659.75
2023-12-12T02:19:58.406Z,100663.28
2023-12-12T02:22:26.858Z,100665.13
2023-12-12T02:24:54.309Z,100670.28
2023-12-12T02:27:21.256Z,100672.78
2023-12-12T02:29:48.759Z,100674.44
2023-12-12T02:32:17.781Z,100669.84
2023-12-12T02:34:44.986Z,100666.69
2023-12-12T02:37:11.998Z,100674.16
2023-12-12T02:39:42.863Z,100670.38
2023-12-12T02:42:09.861Z,100665.09
2023-12-12T02:44:36.946Z,100675.38
2023-12-12T02:47:03.892Z,100675.84
2023-12-12T02:49:30.897Z,100680.81
2023-12-12T02:51:57.893Z,100675.22
2023-12-12T02:54:24.702Z,100673.25
2023-12-12T02:56:52.995Z,100673.88
2023-12-12T02:59:19.810Z,100667.47
2023-12-12T03:01:48.399Z,100664.34
2023-12-12T03:04:15.538Z,100666.47
2023-12-12T03:06:42.450Z,100673.09
2023-12-12T03:09:09.357Z,100674.38
2023-12-12T03:11:36.201Z,100669.63
2023-12-12T03:14:04.390Z,100671.59
2023-12-12T03:16:31.221Z,100671.94
2023-12-12T03:18:58.242Z,100667.31
2023-12-12T03:21:25.276Z,100676.53
2023-12-12T03:23:52.264Z,100666.31
2023-12-12T03:26:19.206Z,100660.03
2023-12-12T03:28:46.087Z,100651.75
2023-12-12T03:31:14.563Z,100648.63
2023-12-12T03:33:41.479Z,100644.63
2023-12-12T03:36:09.349Z,100646.78
2023-12-12T03:38:36.208Z,100645.63
2023-12-12T03:41:03.319Z,100644.44
2023-12-12T03:43:30.285Z,100639.50
2023-12-12T03:45:57.616Z,100649.41
2023-12-12T03:48:25.906Z,100650.53
2023-12-12T03:50:52.948Z,100643.44
2023-12-12T03:53:19.787Z,100638.34
2023-12-12T03:55:46.639Z,100636.84
2023-12-12T03:58:13.912Z,100641.78
2023-12-12T04:00:41.052Z,100632.53
2023-12-12T04:03:08.283Z,100636.34
2023-12-12T04:05:36.737Z,100636.63
2023-12-12T04:08:03.568Z,100637.78
2023-12-12T04:10:30.420Z,100635.47
2023-12-12T04:12:58.283Z,100636.47
2023-12-12T04:15:25.254Z,100632.31
2023-12-12T04:17:52.136Z,100632.66
2023-12-12T04:20:19.342Z,100630.16
2023-12-12T04:22:47.673Z,100624.91
2023-12-12T04:25:15.106Z,100630.16
2023-12-12T04:27:43.382Z,100635.13
2023-12-12T04:30:11.289Z,100630.50
2023-12-12T04:32:38.152Z,100625.75
2023-12-12T04:35:07.391Z,100621.13
2023-12-12T04:37:34.577Z,100623.44
2023-12-12T04:40:03.087Z,100627.59
2023-12-12T04:42:30.253Z,100630.72
2023-12-12T04:44:57.073Z,100626.25
2023-12-12T04:47:24.750Z,100620.00
2023-12-12T04:49:52.691Z,100630.25
2023-12-12T04:52:19.711Z,100620.34
2023-12-12T04:54:46.546Z,100619.19
2023-12-12T04:57:14.894Z,100614.41
2023-12-12T04:59:41.778Z,100609.97
2023-12-12T05:02:08.805Z,100601.88
2023-12-12T05:04:37.110Z,100599.25
2023-12-12T05:07:04.359Z,100598.41
2023-12-12T05:09:32.436Z,100592.97
2023-12-12T05:11:59.620Z,100593.97
2023-12-12T05:14:27.823Z,100592.97
2023-12-12T05:17:01.435Z,100591.00
2023-12-12T05:19:34.564Z,100588.53
2023-12-12T05:22:01.479Z,100574.50
2023-12-12T05:24:28.264Z,100580.75
2023-12-12T05:26:55.149Z,100569.72
2023-12-12T05:29:21.992Z,100569.03
2023-12-12T05:31:50.452Z,100567.56
2023-12-12T05:34:17.489Z,100569.56
2023-12-12T05:36:44.402Z,100560.28
2023-12-12T05:39:11.425Z,100561.28
2023-12-12T05:41:38.497Z,100558.00
2023-12-12T05:44:07.004Z,100553.19
2023-12-12T05:46:35.005Z,100551.53
2023-12-12T05:49:04.360Z,100562.91
2023-12-12T05:51:31.573Z,100559.28
2023-12-12T05:53:58.662Z,100559.63
2023-12-12T05:56:25.701Z,100562.56
2023-12-12T05:58:52.943Z,100558.44
2023-12-12T06:01:19.992Z,100557.94
2023-12-12T06:03:47.058Z,100553.97
2023-12-12T06:06:15.489Z,100554.97
2023-12-12T06:08:42.937Z,100557.28
2023-12-12T06:11:09.845Z,100563.22
2023-12-12T06:13:37.148Z,100556.28
2023-12-12T06:16:04.458Z,100570.81
2023-12-12T06:18:31.786Z,100570.13
2023-12-12T06:20:58.628Z,100579.03
2023-12-12T06:23:27.008Z,100575.41
2023-12-12T06:25:55.199Z,100578.06
2023-12-12T06:28:22.134Z,100571.78
2023-12-12T06:30:49.084Z,100559.91
2023-12-12T06:33:18.027Z,100570.16
2023-12-12T06:35:44.904Z,100563.56
2023-12-12T06:38:11.855Z,100565.06
2023-12-12T06:40:40.368Z,100561.94
2023-12-12T06:43:07.291Z,100556.97
2023-12-12T06:45:34.429Z,100543.47
2023-12-12T06:48:01.550Z,100543.94
2023-12-12T06:50:28.396Z,100536.56
2023-12-12T06:52:55.971Z,100539.84
2023-12-12T06:55:23.802Z,100533.25
2023-12-12T06:57:52.049Z,100535.56
2023-12-12T07:00:21.160Z,100525.50
2023-12-12T07:02:47.987Z,100526.16
2023-12-12T07:05:16.605Z,100524.81
2023-12-12T07:07:45.057Z,100515.09
2023-12-12T07:10:12.755Z,100515.44
2023-12-12T07:12:39.760Z,100518.72
2023-12-12T07:15:08.632Z,100507.84
2023-12-12T07:17:35.800Z,100513.59
2023-12-12T07:20:03.579Z,100516.75
2023-12-12T07:22:32.081Z,100512.94
2023-12-12T07:24:58.984Z,100523.00
2023-12-12T07:27:26.896Z,100523.69
2023-12-12T07:29:54.118Z,100519.84
2023-12-12T07:32:22.602Z,100523.00
2023-12-12T07:34:49.547Z,100511.25
2023-12-12T07:37:16.506Z,100508.28
2023-12-12T07:39:43.433Z,100507.94
2023-12-12T07:42:11.072Z,100499.03
2023-12-12T07:44:38.034Z,100497.88
2023-12-12T07:47:05.291Z,100488.78
2023-12-12T07:49:33.717Z,100481.50
2023-12-12T07:52:00.881Z,100483.00
2023-12-12T07:54:27.752Z,100486.28
2023-12-12T07:56:55.438Z,100479.00
2023-12-12T07:59:22.526Z,100484.13
2023-12-12T08:01:49.617Z,100485.59
2023-12-12T08:04:16.919Z,100474.88
2023-12-12T08:06:45.358Z,100477.00
2023-12-12T08:09:12.216Z,100469.72
2023-12-12T08:11:39.286Z,100470.19
2023-12-12T08:14:06.284Z,100476.97
2023-12-12T08:16:33.399Z,100469.50
2023-12-12T08:19:02.954Z,100471.00
2023-12-12T08:21:30.707Z,100469.00
2023-12-12T08:23:58.905Z,100467.66
2023-12-12T08:26:25.762Z,100468.31
2023-12-12T08:28:52.685Z,100466.97
2023-12-12T08:31:19.550Z,100456.88
2023-12-12T08:33:46.516Z,100450.41
2023-12-12T08:36:13.560Z,100446.59
2023-12-12T08:38:40.438Z,100445.44
2023-12-12T08:41:11.258Z,100437.97
2023-12-12T08:43:41.225Z,100437.78
2023-12-12T08:46:08.179Z,100425.03
2023-12-12T08:48:35.177Z,100432.63
2023-12-12T08:51:02.216Z,100423.53
2023-12-12T08:53:29.040Z,100422.34
2023-12-12T08:55:57.279Z,100425.47
2023-12-12T08:58:26.847Z,100427.75
2023-12-12T09:00:57.082Z,100422.13
2023-12-12T09:03:23.998Z,100430.72
2023-12-12T09:05:50.926Z,100424.06
2023-12-12T09:08:18.075Z,100420.25
2023-12-12T09:10:44.968Z,100414.56
2023-12-12T09:13:12.021Z,100415.06
2023-12-12T09:15:40.246Z,100413.88
2023-12-12T09:18:16.765Z,100413.53
2023-12-12T09:20:47.710Z,100406.06
2023-12-12T09:23:14.767Z,100407.69
2023-12-12T09:25:41.590Z,100398.56
2023-12-12T09:28:08.488Z,100400.06
2023-12-12T09:30:35.438Z,100395.38
2023-12-12T09:33:04.006Z,100385.44
2023-12-12T09:35:31.021Z,100385.25
2023-12-12T09:37:57.953Z,100383.28
2023-12-12T09:40:24.861Z,100377.59
2023-12-12T09:42:53.743Z,100371.13
2023-12-12T09:45:23.748Z,100362.19
2023-12-12T09:47:52.353Z,100364.28
2023-12-12T09:50:21.045Z,100355.16
2023-12-12T09:52:50.332Z,100354.81
2023-12-12T09:55:20.445Z,100352.66
2023-12-12T09:57:47.605Z,100341.66
2023-12-12T10:00:15.856Z,100350.28
2023-12-12T10:02:43.241Z,100349.09
2023-12-12T10:05:12.056Z,100337.13
2023-12-12T10:07:44.012Z,100324.34
2023-12-12T10:10:13.918Z,100329.25
2023-12-12T10:12:41.310Z,100312.19
2023-12-12T10:15:23.510Z,100307.31
2023-12-12T10:17:56.323Z,100309.63
2023-12-12T10:20:26.637Z,100301.50
2023-12-12T10:22:58.392Z,100297.47
2023-12-12T10:25:26.016Z,100290.97
2023-12-12T10:27:57.145Z,100288.75
2023-12-12T10:30:24.401Z,100277.81
2023-12-12T10:32:54.937Z,100275.59
2023-12-12T10:35:23.253Z,100277.69
2023-12-12T10:37:50.280Z,100274.47
2023-12-12T10:40:23.621Z,100266.16
2023-12-12T10:42:52.170Z,100258.81
2023-12-12T10:45:22.265Z,100258.28
2023-12-12T10:47:51.954Z,100261.34
2023-12-12T10:50:20.453Z,100254.69
2023-12-12T10:52:51.090Z,100247.97
2023-12-12T10:55:20.900Z,100248.44
2023-12-12T10:57:48.843Z,100248.88
2023-12-12T11:00:19.571Z,100243.19
2023-12-12T11:02:48.816Z,100240.16
2023-12-12T11:05:16.760Z,100236.31
2023-12-12T11:07:49.642Z,100225.13
2023-12-12T11:10:23.146Z,100220.06
2023-12-12T11:12:53.608Z,100216.19
2023-12-12T11:15:21.757Z,100206.03
2023-12-12T11:17:48.995Z,100199.31
2023-12-12T11:20:17.369Z,100205.09
2023-12-12T11:22:46.337Z,100194.88
2023-12-12T11:25:17.607Z,100189.22
2023-12-12T11:27:52.079Z,100187.78
2023-12-12T11:30:20.899Z,100183.94
2023-12-12T11:32:48.892Z,100179.25
2023-12-12T11:35:27.320Z,100179.50
2023-12-12T11:37:55.468Z,100174.59
2023-12-12T11:40:24.831Z,100171.16
2023-12-12T11:42:55.904Z,100164.47
2023-12-12T11:45:33.449Z,100158.75
2023-12-12T11:48:04.925Z,100149.41
2023-12-12T11:50:33.078Z,100141.84
2023-12-12T11:53:02.681Z,100134.31
2023-12-12T11:55:32.537Z,100140.25
2023-12-12T11:58:02.877Z,100128.41
2023-12-12T12:00:34.502Z,100126.19
2023-12-12T12:03:02.253Z,100115.97
2023-12-12T12:05:29.273Z,100106.81
2023-12-12T12:07:59.504Z,100107.22
2023-12-12T12:10:26.865Z,100103.38
2023-12-12T12:12:58.469Z,100102.16
2023-12-12T12:15:28.173Z,100082.97
2023-12-12T12:17:55.714Z,100081.75
2023-12-12T12:20:22.816Z,100079.69
2023-12-12T12:22:49.973Z,100072.97
2023-12-12T12:25:22.371Z,100071.53
2023-12-12T12:27:52.977Z,100068.28
2023-12-12T12:30:20.842Z,100058.06
2023-12-12T12:33:02.763Z,100054.78
2023-12-12T12:35:30.150Z,100050.72
2023-12-12T12:37:58.810Z,100046.63
2023-12-12T12:40:34.805Z,100040.72
2023-12-12T12:43:06.379Z,100032.31
2023-12-12T12:45:34.270Z,100038.88
2023-12-12T12:48:09.038Z,100033.75
2023-12-12T12:50:35.992Z,100025.38
2023-12-12T12:53:04.791Z,100015.16
2023-12-12T12:55:32.219Z,100016.59
2023-12-12T12:57:59.284Z,100018.81
2023-12-12T13:00:27.644Z,100020.25
2023-12-12T13:02:55.425Z,100014.75
2023-12-12T13:05:24.350Z,100009.19
2023-12-12T13:07:51.261Z,100001.00
2023-12-12T13:10:18.734Z,99994.66
2023-12-12T13:12:45.977Z,99996.13
2023-12-12T13:15:13.196Z,99992.63
2023-12-12T13:17:40.703Z,99999.59
2023-12-12T13:20:11.927Z,99991.38
2023-12-12T13:22:42.095Z,99993.25
2023-12-12T13:25:10.285Z,99987.94
2023-12-12T13:27:39.852Z,99992.44
2023-12-12T13:30:11.794Z,99990.59
2023-12-12T13:32:39.816Z,99977.50
2023-12-12T13:35:18.244Z,99966.44
2023-12-12T13:37:55.648Z,99960.75
2023-12-12T13:40:24.636Z,99955.63
2023-12-12T13:42:52.195Z,99949.69
2023-12-12T13:45:20.201Z,99942.97
2023-12-12T13:47:48.908Z,99940.31
2023-12-12T13:50:16.656Z,99935.00
2023-12-12T13:52:44.124Z,99930.69
2023-12-12T13:55:12.509Z,99925.78
2023-12-12T13:57:39.430Z,99925.78
2023-12-12T14:00:10.422Z,99924.75
2023-12-12T14:02:38.086Z,99930.28
2023-12-12T14:05:06.374Z,99930.06
2023-12-12T14:07:34.530Z,99936.81
2023-12-12T14:10:02.312Z,99937.84
2023-12-12T14:12:30.895Z,99935.19
2023-12-12T14:14:58.225Z,99931.50
2023-12-12T14:17:25.149Z,99924.56
2023-12-12T14:19:52.186Z,99919.25
2023-12-12T14:22:19.994Z,99912.50
2023-12-12T14:24:47.839Z,99918.00
2023-12-12T14:27:14.630Z,99917.19
2023-12-12T14:29:43.845Z,99908.41
2023-12-12T14:32:11.299Z,99911.06
2023-12-12T14:34:38.596Z,99899.84
2023-12-12T14:37:05.849Z,99904.13
2023-12-12T14:39:32.696Z,99902.28
2023-12-12T14:42:00.230Z,99899.84
2023-12-12T14:44:27.031Z,99890.22
2023-12-12T14:46:55.879Z,99892.69
2023-12-12T14:49:23.598Z,99885.91
2023-12-12T14:51:52.893Z,99881.44
2023-12-12T14:54:19.807Z,99885.72
2023-12-12T14:56:46.682Z,99867.31
2023-12-12T14:59:13.962Z,99864.66
2023-12-12T15:01:40.897Z,99869.97
2023-12-12T15:04:09.293Z,99867.31
2023-12-12T15:06:36.415Z,99864.66
2023-12-12T15:09:05.095Z,99867.94
2023-12-12T15:11:32.544Z,99862.63
2023-12-12T15:13:59.531Z,99856.47
2023-12-12T15:16:26.869Z,99846.06
2023-12-12T15:18:53.835Z,99845.44
2023-12-12T15:21:25.663Z,99850.75
2023-12-12T15:23:53.161Z,99836.66
2023-12-12T15:26:20.490Z,99840.34
2023-12-12T15:28:47.556Z,99832.59
2023-12-12T15:31:14.519Z,99834.41
2023-12-12T15:33:42.926Z,99821.34
2023-12-12T15:36:10.946Z,99824.00
2023-12-12T15:38:41.586Z,99820.53
2023-12-12T15:41:08.374Z,99812.75
2023-12-12T15:43:35.728Z,99803.97
2023-12-12T15:46:02.901Z,99808.47
2023-12-12T15:48:30.790Z,99808.47
2023-12-12T15:50:57.749Z,99799.91
2023-12-12T15:53:25.080Z,99801.94
2023-12-12T15:55:53.382Z,99790.69
2023-12-12T15:58:21.190Z,99789.09
2023-12-12T16:00:48.505Z,99794.16
2023-12-12T16:03:15.468Z,99794.16
2023-12-12T16:05:43.683Z,99783.78
2023-12-12T16:08:13.341Z,99783.78
2023-12-12T16:10:40.750Z,99765.97
2023-12-12T16:13:09.111Z,99778.22
2023-12-12T16:15:39.080Z,99768.41
2023-12-12T16:18:06.052Z,99766.56
2023-12-12T16:20:32.939Z,99763.09
2023-12-12T16:22:59.863Z,99760.44
2023-12-12T16:25:27.311Z,99755.34
2023-12-12T16:27:55.256Z,99758.81
2023-12-12T16:30:24.028Z,99748.19
2023-12-12T16:32:55.528Z,99751.88
2023-12-12T16:35:24.625Z,99747.38
2023-12-12T16:37:53.547Z,99746.94
2023-12-12T16:40:20.676Z,99742.47
2023-12-12T16:42:47.743Z,99733.47
2023-12-12T16:45:16.723Z,99739.59
2023-12-12T16:47:45.619Z,99737.75
2023-12-12T16:50:12.796Z,99729.78
2023-12-12T16:52:39.952Z,99725.28
2023-12-12T16:55:08.175Z,99721.81
2023-12-12T16:57:37.137Z,99726.09
2023-12-12T17:00:09.249Z,99724.22
2023-12-12T17:02:36.376Z,99712.00
2023-12-12T17:05:08.143Z,99715.47
2023-12-12T17:07:35.574Z,99712.81
2023-12-12T17:10:08.091Z,99714.66
2023-12-12T17:12:35.369Z,99711.19
2023-12-12T17:15:02.330Z,99714.84
2023-12-12T17:17:31.454Z,99713.44
2023-12-12T17:19:58.838Z,99707.28
2023-12-12T17:22:27.156Z,99709.75
2023-12-12T17:24:54.647Z,99705.25
2023-12-12T17:27:21.791Z,99701.78
2023-12-12T17:29:48.547Z,99704.44
2023-12-12T17:32:15.638Z,99693.44
2023-12-12T17:34:47.368Z,99691.56
2023-12-12T17:37:14.399Z,99699.53
2023-12-12T17:39:45.958Z,99691.78
2023-12-12T17:42:12.814Z,99682.19
2023-12-12T17:44:40.570Z,99690.97
2023-12-12T17:47:07.527Z,99685.88
2023-12-12T17:49:34.536Z,99688.53
2023-12-12T17:52:02.102Z,99675.44
2023-12-12T17:54:28.929Z,99685.06
2023-12-12T17:56:57.123Z,99680.75
2023-12-12T17:59:24.143Z,99683.41
2023-12-12T18:01:51.220Z,99679.13
2023-12-12T18:04:18.235Z,99682.59
2023-12-12T18:06:45.138Z,99674.03
2023-12-12T18:09:12.044Z,99682.03
2023-12-12T18:11:39.287Z,99670.34
2023-12-12T18:14:07.607Z,99674.25
2023-12-12T18:16:35.116Z,99674.25
2023-12-12T18:19:04.871Z,99671.59
2023-12-12T18:21:33.099Z,99658.53
2023-12-12T18:24:00.082Z,99659.75
2023-12-12T18:26:30.037Z,99661.00
2023-12-12T18:29:01.650Z,99651.59
2023-12-12T18:31:31.446Z,99648.34
2023-12-12T18:33:59.121Z,99645.09
2023-12-12T18:36:26.365Z,99650.81
2023-12-12T18:38:53.438Z,99652.88
2023-12-12T18:41:21.774Z,99651.47
2023-12-12T18:43:49.055Z,99643.31
2023-12-12T18:46:17.032Z,99639.25
2023-12-12T18:48:45.472Z,99636.19
2023-12-12T18:51:13.307Z,99639.00
2023-12-12T18:53:40.755Z,99646.16
2023-12-12T18:56:10.389Z,99635.53
2023-12-12T18:58:37.445Z,99634.75
2023-12-12T19:01:05.638Z,99632.09
2023-12-12T19:03:34.358Z,99627.81
2023-12-12T19:06:04.888Z,99618.00
2023-12-12T19:08:32.452Z,99613.72
2023-12-12T19:10:59.359Z,99611.47
2023-12-12T19:13:29.833Z,99621.28
2023-12-12T19:15:58.163Z,99615.38
2023-12-12T19:18:25.359Z,99618.22
2023-12-12T19:20:52.249Z,99614.16
2023-12-12T19:23:20.663Z,99618.84
2023-12-12T19:25:47.523Z,99626.81
2023-12-12T19:28:14.526Z,99629.69
2023-12-12T19:30:41.535Z,99617.66
2023-12-12T19:33:08.618Z,99614.19
2023-12-12T19:35:38.918Z,99620.72
2023-12-12T19:38:07.444Z,99616.44
2023-12-12T19:40:37.576Z,99606.03
2023-12-12T19:43:04.769Z,99612.38
2023-12-12T19:45:31.784Z,99599.91
2023-12-12T19:47:59.260Z,99593.78
2023-12-12T19:50:26.285Z,99592.97
2023-12-12T19:52:53.944Z,99589.69
2023-12-12T19:55:21.001Z,99592.34
2023-12-12T19:57:49.183Z,99583.81
2023-12-12T20:00:16.616Z,99594.63
2023-12-12T20:02:43.348Z,99595.22
2023-12-12T20:05:10.295Z,99598.69
2023-12-12T20:07:39.312Z,99591.78
2023-12-12T20:10:07.592Z,99590.97
2023-12-12T20:12:34.610Z,99593.63
2023-12-12T20:15:04.251Z,99591.97
2023-12-12T20:17:31.261Z,99584.22
2023-12-12T20:19:58.314Z,99587.06
2023-12-12T20:22:25.433Z,99586.47
2023-12-12T20:24:52.757Z,99587.50
2023-12-12T20:27:19.741Z,99582.63
2023-12-12T20:29:47.886Z,99586.28
2023-12-12T20:32:17.381Z,99584.06
2023-12-12T20:34:44.624Z,99586.72
2023-12-12T20:37:11.647Z,99590.97
2023-12-12T20:39:38.560Z,99588.56
2023-12-12T20:42:06.130Z,99584.28
2023-12-12T20:44:32.960Z,99592.03
2023-12-12T20:46:59.894Z,99605.28
2023-12-12T20:49:28.228Z,99611.63
2023-12-12T20:51:58.240Z,99625.91
2023-12-12T20:54:26.434Z,99621.41
2023-12-12T20:56:54.306Z,99620.41
2023-12-12T20:59:21.509Z,99620.16
2023-12-12T21:01:48.679Z,99627.94
2023-12-12T21:04:16.834Z,99630.38
2023-12-12T21:06:45.189Z,99632.84
2023-12-12T21:09:15.691Z,99633.66
2023-12-12T21:11:43.068Z,99629.16
2023-12-12T21:14:11.125Z,99625.47
2023-12-12T21:16:37.985Z,99612.81
2023-12-12T21:19:05.446Z,99608.31
2023-12-12T21:21:32.273Z,99611.38
2023-12-12T21:24:00.767Z,99592.56
2023-12-12T21:26:27.664Z,99591.34
2023-12-12T21:28:54.582Z,99595.44
2023-12-12T21:31:22.964Z,99590.13
2023-12-12T21:33:49.954Z,99590.94
2023-12-12T21:36:17.224Z,99585.38
2023-12-12T21:38:46.225Z,99587.25
2023-12-12T21:41:15.398Z,99585.63
2023-12-12T21:43:43.447Z,99598.06
2023-12-12T21:46:10.994Z,99596.44
2023-12-12T21:48:37.926Z,99591.34
2023-12-12T21:51:05.680Z,99590.53
2023-12-12T21:53:34.308Z,99583.38
2023-12-12T21:56:02.977Z,99588.88
2023-12-12T21:58:31.185Z,99587.25
2023-12-12T22:00:58.008Z,99590.97
2023-12-12T22:03:24.883Z,99588.31
2023-12-12T22:05:52.016Z,99588.31
2023-12-12T22:08:18.962Z,99597.88
2023-12-12T22:10:46.289Z,99586.66
2023-12-12T22:13:16.661Z,99588.31
2023-12-12T22:15:45.059Z,99589.91
2023-12-12T22:18:14.485Z,99584.59
2023-12-12T22:20:41.626Z,99594.19
2023-12-12T22:23:08.634Z,99579.09
2023-12-12T22:25:35.534Z,99573.78
2023-12-12T22:28:02.756Z,99578.06
2023-12-12T22:30:29.696Z,99585.22
2023-12-12T22:32:58.088Z,99573.56
2023-12-12T22:35:25.428Z,99583.16
2023-12-12T22:37:52.544Z,99587.66
2023-12-12T22:40:19.442Z,99577.25
2023-12-12T22:42:46.245Z,99583.38
2023-12-12T22:45:13.112Z,99576.44
2023-12-12T22:47:40.029Z,99577.25
2023-12-12T22:50:09.403Z,99579.09
2023-12-12T22:52:36.285Z,99573.97
2023-12-12T22:55:03.393Z,99580.09
2023-12-12T22:57:30.445Z,99583.56
2023-12-12T22:59:57.499Z,99575.03
2023-12-12T23:02:24.297Z,99575.03
2023-12-12T23:04:51.354Z,99577.69
2023-12-12T23:07:19.685Z,99576.06
2023-12-12T23:09:46.555Z,99579.53
2023-12-12T23:12:13.425Z,99588.31
2023-12-12T23:14:40.241Z,99584.03
2023-12-12T23:17:07.129Z,99577.06
2023-12-12T23:19:34.031Z,99578.91
2023-12-12T23:22:00.969Z,99577.88
2023-12-12T23:24:31.558Z,99571.97
2023-12-12T23:26:58.679Z,99579.13
2023-12-12T23:29:25.546Z,99571.75
2023-12-12T23:31:52.437Z,99572.59
2023-12-12T23:34:19.471Z,99562.16
2023-12-12T23:36:46.429Z,99560.53
2023-12-12T23:39:13.390Z,99562.38
2023-12-12T23:41:53.827Z,99558.09
2023-12-12T23:44:22.905Z,99556.69
2023-12-12T23:46:51.666Z,99555.66
2023-12-12T23:49:18.662Z,99551.59
2023-12-12T23:51:45.564Z,99552.00
2023-12-12T23:54:12.478Z,99541.38
2023-12-12T23:56:39.341Z,99537.91
2023-12-12T23:59:07.737Z,99537.13
